sensor_id;sensor_type;location;lat;lon;timestamp;P1;durP1;ratioP1;P2;durP2;ratioP2
537;SDS011;254;48.524;8.926;2022-10-16T00:00:03;2.0;;;1.1;;
537;SDS011;254;48.524;8.926;2022-10-16T00:01:05;4.3;;;1.2;;
537;SDS011;254;48.524;8.926;2022-10-16T00:02:02;1.8;;;1.3;;
537;SDS011;254;48.524;8.926;2022-10-16T00:03:03;2.8;;;1.2;;
537;SDS011;254;48.524;8.926;2022-10-16T00:04:03;2.9;;;1.2;;
537;SDS011;254;48.524;8.926;2022-10-16T00:05:02;4.0;;;1.2;;
537;SDS011;254;48.524;8.926;2022-10-16T00:06:03;3.2;;;1.1;;
537;SDS011;254;48.524;8.926;2022-10-16T00:07:02;2.4;;;1.2;;
537;SDS011;254;48.524;8.926;2022-10-16T00:08:02;3.1;;;1.2;;
537;SDS011;254;48.524;8.926;2022-10-16T00:09:03;3.4;;;1.3;;
537;SDS011;254;48.524;8.926;2022-10-16T00:10:02;2.4;;;1.2;;
537;SDS011;254;48.524;8.926;2022-10-16T00:11:03;2.1;;;1.3;;
537;SDS011;254;48.524;8.926;2022-10-16T00:12:02;1.8;;;1.1;;
537;SDS011;254;48.524;8.926;2022-10-16T00:13:02;1.8;;;1.2;;
537;SDS011;254;48.524;8.926;2022-10-16T00:14:03;2.1;;;1.2;;
537;SDS011;254;48.524;8.926;2022-10-16T00:15:02;3.6;;;1.1;;
537;SDS011;254;48.524;8.926;2022-10-16T00:16:01;1.9;;;1.1;;
537;SDS011;254;48.524;8.926;2022-10-16T00:17:02;1.8;;;1.1;;
537;SDS011;254;48.524;8.926;2022-10-16T00:18:02;2.5;;;1.3;;
537;SDS011;254;48.524;8.926;2022-10-16T00:19:03;4.0;;;1.2;;
537;SDS011;254;48.524;8.926;2022-10-16T00:20:02;3.5;;;1.2;;
537;SDS011;254;48.524;8.926;2022-10-16T00:21:02;5.0;;;1.3;;
537;SDS011;254;48.524;8.926;2022-10-16T00:22:03;3.9;;;1.2;;
537;SDS011;254;48.524;8.926;2022-10-16T00:23:01;2.8;;;1.3;;
537;SDS011;254;48.524;8.926;2022-10-16T00:24:03;3.4;;;1.4;;
537;SDS011;254;48.524;8.926;2022-10-16T00:25:02;2.0;;;1.3;;
537;SDS011;254;48.524;8.926;2022-10-16T00:26:03;3.0;;;1.3;;
537;SDS011;254;48.524;8.926;2022-10-16T00:27:02;2.2;;;1.3;;
537;SDS011;254;48.524;8.926;2022-10-16T00:28:03;2.1;;;1.4;;
537;SDS011;254;48.524;8.926;2022-10-16T00:29:03;4.0;;;1.6;;
537;SDS011;254;48.524;8.926;2022-10-16T00:30:02;3.5;;;1.4;;
537;SDS011;254;48.524;8.926;2022-10-16T00:31:03;2.5;;;1.2;;
537;SDS011;254;48.524;8.926;2022-10-16T00:32:03;2.9;;;1.3;;
537;SDS011;254;48.524;8.926;2022-10-16T00:33:02;2.0;;;1.4;;
537;SDS011;254;48.524;8.926;2022-10-16T00:34:02;1.8;;;1.1;;
537;SDS011;254;48.524;8.926;2022-10-16T00:35:03;2.3;;;1.2;;
537;SDS011;254;48.524;8.926;2022-10-16T00:36:03;3.0;;;1.1;;
537;SDS011;254;48.524;8.926;2022-10-16T00:37:02;3.0;;;1.4;;
537;SDS011;254;48.524;8.926;2022-10-16T00:38:03;2.0;;;1.2;;
537;SDS011;254;48.524;8.926;2022-10-16T00:39:02;2.8;;;1.2;;
537;SDS011;254;48.524;8.926;2022-10-16T00:40:02;4.8;;;1.2;;
537;SDS011;254;48.524;8.926;2022-10-16T00:41:03;2.0;;;1.2;;
537;SDS011;254;48.524;8.926;2022-10-16T00:42:01;2.7;;;1.2;;
537;SDS011;254;48.524;8.926;2022-10-16T00:43:02;3.0;;;1.2;;
537;SDS011;254;48.524;8.926;2022-10-16T00:44:03;2.6;;;1.2;;
537;SDS011;254;48.524;8.926;2022-10-16T00:45:03;1.8;;;1.1;;
537;SDS011;254;48.524;8.926;2022-10-16T00:46:03;3.2;;;1.3;;
537;SDS011;254;48.524;8.926;2022-10-16T00:47:02;2.5;;;1.0;;
537;SDS011;254;48.524;8.926;2022-10-16T00:48:03;3.1;;;1.2;;
537;SDS011;254;48.524;8.926;2022-10-16T00:49:03;2.3;;;1.3;;
537;SDS011;254;48.524;8.926;2022-10-16T00:50:06;3.2;;;1.2;;
537;SDS011;254;48.524;8.926;2022-10-16T00:51:03;2.5;;;1.2;;
537;SDS011;254;48.524;8.926;2022-10-16T00:52:02;2.8;;;1.2;;
537;SDS011;254;48.524;8.926;2022-10-16T00:53:02;2.9;;;1.2;;
537;SDS011;254;48.524;8.926;2022-10-16T00:54:02;2.1;;;1.2;;
537;SDS011;254;48.524;8.926;2022-10-16T00:55:03;1.9;;;1.1;;
537;SDS011;254;48.524;8.926;2022-10-16T00:56:02;3.5;;;1.1;;
537;SDS011;254;48.524;8.926;2022-10-16T00:57:04;1.6;;;1.0;;
537;SDS011;254;48.524;8.926;2022-10-16T00:58:01;2.3;;;1.1;;
537;SDS011;254;48.524;8.926;2022-10-16T00:59:03;2.2;;;1.2;;
537;SDS011;254;48.524;8.926;2022-10-16T01:00:03;1.8;;;1.1;;
537;SDS011;254;48.524;8.926;2022-10-16T01:01:02;1.9;;;1.1;;
537;SDS011;254;48.524;8.926;2022-10-16T01:02:03;3.9;;;1.1;;
537;SDS011;254;48.524;8.926;2022-10-16T01:03:22;2.9;;;1.2;;
537;SDS011;254;48.524;8.926;2022-10-16T01:04:02;2.3;;;1.5;;
537;SDS011;254;48.524;8.926;2022-10-16T01:05:03;2.2;;;1.1;;
537;SDS011;254;48.524;8.926;2022-10-16T01:06:06;3.9;;;1.1;;
537;SDS011;254;48.524;8.926;2022-10-16T01:07:04;1.8;;;1.1;;
537;SDS011;254;48.524;8.926;2022-10-16T01:08:04;2.3;;;1.2;;
537;SDS011;254;48.524;8.926;2022-10-16T01:09:06;1.7;;;1.0;;
537;SDS011;254;48.524;8.926;2022-10-16T01:10:06;1.9;;;1.1;;
537;SDS011;254;48.524;8.926;2022-10-16T01:11:07;2.8;;;1.1;;
537;SDS011;254;48.524;8.926;2022-10-16T01:12:05;3.1;;;1.3;;
537;SDS011;254;48.524;8.926;2022-10-16T01:13:03;2.7;;;1.3;;
537;SDS011;254;48.524;8.926;2022-10-16T01:14:03;2.1;;;1.2;;
537;SDS011;254;48.524;8.926;2022-10-16T01:15:04;1.7;;;1.1;;
537;SDS011;254;48.524;8.926;2022-10-16T01:16:03;2.1;;;1.2;;
537;SDS011;254;48.524;8.926;2022-10-16T01:17:03;2.1;;;1.2;;
537;SDS011;254;48.524;8.926;2022-10-16T01:18:05;2.5;;;1.3;;
537;SDS011;254;48.524;8.926;2022-10-16T01:19:04;2.5;;;1.2;;
537;SDS011;254;48.524;8.926;2022-10-16T01:20:04;1.9;;;1.1;;
537;SDS011;254;48.524;8.926;2022-10-16T01:21:03;1.9;;;1.1;;
537;SDS011;254;48.524;8.926;2022-10-16T01:22:01;2.7;;;1.2;;
537;SDS011;254;48.524;8.926;2022-10-16T01:23:05;2.1;;;1.1;;
537;SDS011;254;48.524;8.926;2022-10-16T01:24:05;1.9;;;1.1;;
537;SDS011;254;48.524;8.926;2022-10-16T01:25:03;2.5;;;1.2;;
537;SDS011;254;48.524;8.926;2022-10-16T01:26:08;2.4;;;1.3;;
537;SDS011;254;48.524;8.926;2022-10-16T01:27:05;1.9;;;1.1;;
537;SDS011;254;48.524;8.926;2022-10-16T01:28:03;3.1;;;1.3;;
537;SDS011;254;48.524;8.926;2022-10-16T01:29:03;2.6;;;1.1;;
537;SDS011;254;48.524;8.926;2022-10-16T01:30:04;3.5;;;1.2;;
537;SDS011;254;48.524;8.926;2022-10-16T01:31:03;1.8;;;1.1;;
537;SDS011;254;48.524;8.926;2022-10-16T01:32:05;2.1;;;1.2;;
537;SDS011;254;48.524;8.926;2022-10-16T01:33:02;3.2;;;1.3;;
537;SDS011;254;48.524;8.926;2022-10-16T01:34:04;1.6;;;1.1;;
537;SDS011;254;48.524;8.926;2022-10-16T01:35:03;1.7;;;1.2;;
537;SDS011;254;48.524;8.926;2022-10-16T01:36:03;1.9;;;1.2;;
537;SDS011;254;48.524;8.926;2022-10-16T01:37:03;1.9;;;1.2;;
537;SDS011;254;48.524;8.926;2022-10-16T01:38:03;2.1;;;1.5;;
537;SDS011;254;48.524;8.926;2022-10-16T01:39:02;2.0;;;1.3;;
537;SDS011;254;48.524;8.926;2022-10-16T01:40:03;2.7;;;1.3;;
537;SDS011;254;48.524;8.926;2022-10-16T01:41:04;3.4;;;1.5;;
537;SDS011;254;48.524;8.926;2022-10-16T01:42:03;1.9;;;1.3;;
537;SDS011;254;48.524;8.926;2022-10-16T01:43:03;1.9;;;1.3;;
537;SDS011;254;48.524;8.926;2022-10-16T01:44:04;3.4;;;1.3;;
537;SDS011;254;48.524;8.926;2022-10-16T01:45:02;2.5;;;1.2;;
537;SDS011;254;48.524;8.926;2022-10-16T01:46:02;1.7;;;1.2;;
537;SDS011;254;48.524;8.926;2022-10-16T01:47:03;2.2;;;1.2;;
537;SDS011;254;48.524;8.926;2022-10-16T01:48:02;3.5;;;1.2;;
537;SDS011;254;48.524;8.926;2022-10-16T01:49:02;1.8;;;1.2;;
537;SDS011;254;48.524;8.926;2022-10-16T01:50:02;2.4;;;1.2;;
537;SDS011;254;48.524;8.926;2022-10-16T01:51:03;2.5;;;1.2;;
537;SDS011;254;48.524;8.926;2022-10-16T01:52:04;1.8;;;1.2;;
537;SDS011;254;48.524;8.926;2022-10-16T01:53:03;2.6;;;1.2;;
537;SDS011;254;48.524;8.926;2022-10-16T01:54:02;3.4;;;1.5;;
537;SDS011;254;48.524;8.926;2022-10-16T01:55:03;2.1;;;1.3;;
537;SDS011;254;48.524;8.926;2022-10-16T01:56:02;5.6;;;1.3;;
537;SDS011;254;48.524;8.926;2022-10-16T01:57:02;4.0;;;1.2;;
537;SDS011;254;48.524;8.926;2022-10-16T01:58:02;2.0;;;1.2;;
537;SDS011;254;48.524;8.926;2022-10-16T01:59:03;4.5;;;1.2;;
537;SDS011;254;48.524;8.926;2022-10-16T02:00:05;3.3;;;1.3;;
537;SDS011;254;48.524;8.926;2022-10-16T02:01:02;1.9;;;1.2;;
537;SDS011;254;48.524;8.926;2022-10-16T02:02:05;1.7;;;1.1;;
537;SDS011;254;48.524;8.926;2022-10-16T02:03:02;2.6;;;1.2;;
537;SDS011;254;48.524;8.926;2022-10-16T02:04:04;3.0;;;1.1;;
537;SDS011;254;48.524;8.926;2022-10-16T02:05:04;2.8;;;1.3;;
537;SDS011;254;48.524;8.926;2022-10-16T02:06:02;1.8;;;1.0;;
537;SDS011;254;48.524;8.926;2022-10-16T02:07:03;1.9;;;1.3;;
537;SDS011;254;48.524;8.926;2022-10-16T02:08:02;2.7;;;1.2;;
537;SDS011;254;48.524;8.926;2022-10-16T02:09:02;1.9;;;1.1;;
537;SDS011;254;48.524;8.926;2022-10-16T02:10:03;2.6;;;1.3;;
537;SDS011;254;48.524;8.926;2022-10-16T02:11:02;3.8;;;1.3;;
537;SDS011;254;48.524;8.926;2022-10-16T02:12:03;2.6;;;1.1;;
537;SDS011;254;48.524;8.926;2022-10-16T02:13:03;3.3;;;1.1;;
537;SDS011;254;48.524;8.926;2022-10-16T02:14:03;2.9;;;1.3;;
537;SDS011;254;48.524;8.926;2022-10-16T02:15:02;1.8;;;1.1;;
537;SDS011;254;48.524;8.926;2022-10-16T02:16:02;1.8;;;1.1;;
537;SDS011;254;48.524;8.926;2022-10-16T02:17:09;1.8;;;1.1;;
537;SDS011;254;48.524;8.926;2022-10-16T02:18:02;1.9;;;1.1;;
537;SDS011;254;48.524;8.926;2022-10-16T02:19:03;2.0;;;1.1;;
537;SDS011;254;48.524;8.926;2022-10-16T02:20:02;1.7;;;1.0;;
537;SDS011;254;48.524;8.926;2022-10-16T02:21:04;3.1;;;1.2;;
537;SDS011;254;48.524;8.926;2022-10-16T02:22:03;2.3;;;1.1;;
537;SDS011;254;48.524;8.926;2022-10-16T02:23:02;2.4;;;1.1;;
537;SDS011;254;48.524;8.926;2022-10-16T02:24:03;1.9;;;1.1;;
537;SDS011;254;48.524;8.926;2022-10-16T02:25:04;1.8;;;1.1;;
537;SDS011;254;48.524;8.926;2022-10-16T02:26:03;4.4;;;1.4;;
537;SDS011;254;48.524;8.926;2022-10-16T02:27:03;3.2;;;1.1;;
537;SDS011;254;48.524;8.926;2022-10-16T02:28:03;2.7;;;1.1;;
537;SDS011;254;48.524;8.926;2022-10-16T02:29:03;2.7;;;1.2;;
537;SDS011;254;48.524;8.926;2022-10-16T02:30:05;2.7;;;1.2;;
537;SDS011;254;48.524;8.926;2022-10-16T02:31:03;2.6;;;1.1;;
537;SDS011;254;48.524;8.926;2022-10-16T02:32:04;2.5;;;1.2;;
537;SDS011;254;48.524;8.926;2022-10-16T02:33:02;3.3;;;1.2;;
537;SDS011;254;48.524;8.926;2022-10-16T02:34:03;2.5;;;1.1;;
537;SDS011;254;48.524;8.926;2022-10-16T02:35:02;2.2;;;1.1;;
537;SDS011;254;48.524;8.926;2022-10-16T02:36:03;2.1;;;1.1;;
537;SDS011;254;48.524;8.926;2022-10-16T02:37:02;2.3;;;1.1;;
537;SDS011;254;48.524;8.926;2022-10-16T02:38:03;2.1;;;1.1;;
537;SDS011;254;48.524;8.926;2022-10-16T02:39:02;2.7;;;1.3;;
537;SDS011;254;48.524;8.926;2022-10-16T02:40:02;2.4;;;1.2;;
537;SDS011;254;48.524;8.926;2022-10-16T02:41:03;2.7;;;1.2;;
537;SDS011;254;48.524;8.926;2022-10-16T02:42:02;2.1;;;1.0;;
537;SDS011;254;48.524;8.926;2022-10-16T02:43:03;1.8;;;1.2;;
537;SDS011;254;48.524;8.926;2022-10-16T02:44:02;2.3;;;1.1;;
537;SDS011;254;48.524;8.926;2022-10-16T02:45:02;2.9;;;1.2;;
537;SDS011;254;48.524;8.926;2022-10-16T02:46:03;3.0;;;1.1;;
537;SDS011;254;48.524;8.926;2022-10-16T02:47:02;2.0;;;1.2;;
537;SDS011;254;48.524;8.926;2022-10-16T02:48:02;2.1;;;1.2;;
537;SDS011;254;48.524;8.926;2022-10-16T02:49:02;1.8;;;1.0;;
537;SDS011;254;48.524;8.926;2022-10-16T02:50:02;3.0;;;1.2;;
537;SDS011;254;48.524;8.926;2022-10-16T02:51:01;2.7;;;1.2;;
537;SDS011;254;48.524;8.926;2022-10-16T02:52:02;1.8;;;1.2;;
537;SDS011;254;48.524;8.926;2022-10-16T02:53:02;3.2;;;1.2;;
537;SDS011;254;48.524;8.926;2022-10-16T02:54:03;2.3;;;1.1;;
537;SDS011;254;48.524;8.926;2022-10-16T02:55:02;1.7;;;1.1;;
537;SDS011;254;48.524;8.926;2022-10-16T02:56:02;2.2;;;1.1;;
537;SDS011;254;48.524;8.926;2022-10-16T02:57:03;2.4;;;1.2;;
537;SDS011;254;48.524;8.926;2022-10-16T02:58:02;2.4;;;1.1;;
537;SDS011;254;48.524;8.926;2022-10-16T02:59:02;2.0;;;1.2;;
537;SDS011;254;48.524;8.926;2022-10-16T03:00:02;3.8;;;1.1;;
537;SDS011;254;48.524;8.926;2022-10-16T03:01:01;3.4;;;1.1;;
537;SDS011;254;48.524;8.926;2022-10-16T03:02:02;3.1;;;1.1;;
537;SDS011;254;48.524;8.926;2022-10-16T03:03:03;3.2;;;1.3;;
537;SDS011;254;48.524;8.926;2022-10-16T03:04:02;1.8;;;1.2;;
537;SDS011;254;48.524;8.926;2022-10-16T03:05:02;3.0;;;1.3;;
537;SDS011;254;48.524;8.926;2022-10-16T03:06:02;1.9;;;1.2;;
537;SDS011;254;48.524;8.926;2022-10-16T03:07:02;2.3;;;1.3;;
537;SDS011;254;48.524;8.926;2022-10-16T03:08:02;3.8;;;1.4;;
537;SDS011;254;48.524;8.926;2022-10-16T03:09:02;2.4;;;1.4;;
537;SDS011;254;48.524;8.926;2022-10-16T03:10:03;2.1;;;1.5;;
537;SDS011;254;48.524;8.926;2022-10-16T03:11:03;3.0;;;1.4;;
537;SDS011;254;48.524;8.926;2022-10-16T03:12:03;2.9;;;1.5;;
537;SDS011;254;48.524;8.926;2022-10-16T03:13:02;2.7;;;1.5;;
537;SDS011;254;48.524;8.926;2022-10-16T03:14:02;3.2;;;1.7;;
537;SDS011;254;48.524;8.926;2022-10-16T03:15:03;3.1;;;1.7;;
537;SDS011;254;48.524;8.926;2022-10-16T03:16:02;2.3;;;1.4;;
537;SDS011;254;48.524;8.926;2022-10-16T03:17:03;2.9;;;1.7;;
537;SDS011;254;48.524;8.926;2022-10-16T03:18:02;2.4;;;1.6;;
537;SDS011;254;48.524;8.926;2022-10-16T03:19:02;3.2;;;1.7;;
537;SDS011;254;48.524;8.926;2022-10-16T03:20:03;3.4;;;1.6;;
537;SDS011;254;48.524;8.926;2022-10-16T03:21:01;3.6;;;1.3;;
537;SDS011;254;48.524;8.926;2022-10-16T03:22:02;4.8;;;1.8;;
537;SDS011;254;48.524;8.926;2022-10-16T03:23:03;3.3;;;1.7;;
537;SDS011;254;48.524;8.926;2022-10-16T03:24:02;3.0;;;2.2;;
537;SDS011;254;48.524;8.926;2022-10-16T03:25:02;3.6;;;1.7;;
537;SDS011;254;48.524;8.926;2022-10-16T03:26:02;2.7;;;1.7;;
537;SDS011;254;48.524;8.926;2022-10-16T03:27:03;2.9;;;1.7;;
537;SDS011;254;48.524;8.926;2022-10-16T03:28:02;4.0;;;1.9;;
537;SDS011;254;48.524;8.926;2022-10-16T03:29:02;2.8;;;1.6;;
537;SDS011;254;48.524;8.926;2022-10-16T03:30:02;3.0;;;1.8;;
537;SDS011;254;48.524;8.926;2022-10-16T03:31:02;3.9;;;1.5;;
537;SDS011;254;48.524;8.926;2022-10-16T03:32:01;2.2;;;1.5;;
537;SDS011;254;48.524;8.926;2022-10-16T03:33:02;2.5;;;1.6;;
537;SDS011;254;48.524;8.926;2022-10-16T03:34:03;3.7;;;1.6;;
537;SDS011;254;48.524;8.926;2022-10-16T03:35:02;4.5;;;1.7;;
537;SDS011;254;48.524;8.926;2022-10-16T03:36:02;3.1;;;1.6;;
537;SDS011;254;48.524;8.926;2022-10-16T03:37:03;4.0;;;1.5;;
537;SDS011;254;48.524;8.926;2022-10-16T03:38:01;3.3;;;1.7;;
537;SDS011;254;48.524;8.926;2022-10-16T03:39:02;3.9;;;1.5;;
537;SDS011;254;48.524;8.926;2022-10-16T03:40:03;3.6;;;1.5;;
537;SDS011;254;48.524;8.926;2022-10-16T03:41:01;3.0;;;1.5;;
537;SDS011;254;48.524;8.926;2022-10-16T03:42:02;2.3;;;1.6;;
537;SDS011;254;48.524;8.926;2022-10-16T03:43:02;2.3;;;1.5;;
537;SDS011;254;48.524;8.926;2022-10-16T03:44:02;2.4;;;1.6;;
537;SDS011;254;48.524;8.926;2022-10-16T03:45:03;2.5;;;1.5;;
537;SDS011;254;48.524;8.926;2022-10-16T03:46:02;2.3;;;1.6;;
537;SDS011;254;48.524;8.926;2022-10-16T03:47:02;2.5;;;1.5;;
537;SDS011;254;48.524;8.926;2022-10-16T03:48:02;1.9;;;1.3;;
537;SDS011;254;48.524;8.926;2022-10-16T03:49:02;2.5;;;1.4;;
537;SDS011;254;48.524;8.926;2022-10-16T03:50:03;4.2;;;1.4;;
537;SDS011;254;48.524;8.926;2022-10-16T03:51:03;3.1;;;1.4;;
537;SDS011;254;48.524;8.926;2022-10-16T03:52:02;2.4;;;1.3;;
537;SDS011;254;48.524;8.926;2022-10-16T03:53:02;2.2;;;1.3;;
537;SDS011;254;48.524;8.926;2022-10-16T03:54:04;4.3;;;1.3;;
537;SDS011;254;48.524;8.926;2022-10-16T03:55:03;4.7;;;1.4;;
537;SDS011;254;48.524;8.926;2022-10-16T03:56:03;2.6;;;1.4;;
537;SDS011;254;48.524;8.926;2022-10-16T03:57:02;2.6;;;1.4;;
537;SDS011;254;48.524;8.926;2022-10-16T03:58:02;2.2;;;1.5;;
537;SDS011;254;48.524;8.926;2022-10-16T03:59:02;2.6;;;1.6;;
537;SDS011;254;48.524;8.926;2022-10-16T04:00:02;2.1;;;1.4;;
537;SDS011;254;48.524;8.926;2022-10-16T04:01:02;2.2;;;1.5;;
537;SDS011;254;48.524;8.926;2022-10-16T04:02:03;2.2;;;1.5;;
537;SDS011;254;48.524;8.926;2022-10-16T04:03:02;2.3;;;1.6;;
537;SDS011;254;48.524;8.926;2022-10-16T04:04:02;2.6;;;1.3;;
537;SDS011;254;48.524;8.926;2022-10-16T04:05:03;3.7;;;1.5;;
537;SDS011;254;48.524;8.926;2022-10-16T04:06:02;2.1;;;1.3;;
537;SDS011;254;48.524;8.926;2022-10-16T04:07:04;2.0;;;1.5;;
537;SDS011;254;48.524;8.926;2022-10-16T04:08:02;1.9;;;1.2;;
537;SDS011;254;48.524;8.926;2022-10-16T04:09:02;2.1;;;1.3;;
